Retsil, Washington
Current Conditions -  °F | °C
As of 8:35 AM on Friday 19 Dec 2014 (Local Time) from KPWT Reporting Station
Overcast Overcast  
Wind Chill: 39°   Ceiling: 600
Heat Index: 45°   Visibility: 10mi
Dew Point: 45°   Wind: 12mph
Humidity: 100%   Direction: 180°S
Pressure: 29.9"   Gusts: NA
Location:  47.53°N, 122.59°W
Report Text: KPWT 191635Z AUTO 18010KT 10SM BKN006 OVC011 07/07 A2990 RMK AO1 P0002
Loading
Personal Weather Stations






























Interactive Weather Map New forecast layout! Learn more

10-Day Weather Forecast

Advertisements
Track Severe Weather on mobile